createdAt,value
2019-05-15T00:00:48.124Z,1019.30
2019-05-15T00:01:48.875Z,1019.31
2019-05-15T00:02:48.177Z,1019.33
2019-05-15T00:03:49.291Z,1019.31
2019-05-15T00:04:49.221Z,1019.31
2019-05-15T00:05:49.602Z,1019.30
2019-05-15T00:06:48.578Z,1019.26
2019-05-15T00:07:48.433Z,1019.28
2019-05-15T00:08:47.985Z,1019.28
2019-05-15T00:09:49.197Z,1019.27
2019-05-15T00:10:48.393Z,1019.29
2019-05-15T00:11:48.159Z,1019.28
2019-05-15T00:12:48.708Z,1019.27
2019-05-15T00:13:48.342Z,1019.28
2019-05-15T00:14:48.438Z,1019.26
2019-05-15T00:15:48.146Z,1019.27
2019-05-15T00:16:48.216Z,1019.28
2019-05-15T00:17:48.538Z,1019.26
2019-05-15T00:18:48.262Z,1019.26
2019-05-15T00:19:48.595Z,1019.23
2019-05-15T00:20:49.386Z,1019.26
2019-05-15T00:21:48.857Z,1019.20
2019-05-15T00:22:48.467Z,1019.19
2019-05-15T00:23:49.245Z,1019.19
2019-05-15T00:24:48.666Z,1019.21
2019-05-15T00:25:48.746Z,1019.18
2019-05-15T00:26:48.078Z,1019.17
2019-05-15T00:27:48.936Z,1019.15
2019-05-15T00:28:48.001Z,1019.17
2019-05-15T00:29:48.632Z,1019.14
2019-05-15T00:30:48.147Z,1019.17
2019-05-15T00:31:48.550Z,1019.14
2019-05-15T00:32:48.619Z,1019.09
2019-05-15T00:33:48.245Z,1019.09
2019-05-15T00:34:48.683Z,1019.08
2019-05-15T00:35:48.438Z,1019.11
2019-05-15T00:36:48.725Z,1019.05
2019-05-15T00:37:46.309Z,1019.03
2019-05-15T00:38:48.273Z,1019.04
2019-05-15T00:39:48.441Z,1019.05
2019-05-15T00:40:46.200Z,1019.05
2019-05-15T00:41:53.327Z,1019.06
2019-05-15T00:42:46.135Z,1019.03
2019-05-15T00:43:46.105Z,1019.05
2019-05-15T00:44:46.065Z,1019.03
2019-05-15T00:45:46.029Z,1019.06
2019-05-15T00:46:45.996Z,1019.07
2019-05-15T00:47:45.961Z,1019.06
2019-05-15T00:48:45.931Z,1019.03
2019-05-15T00:49:45.897Z,1019.06
2019-05-15T00:50:45.864Z,1019.07
2019-05-15T00:51:48.447Z,1019.06
2019-05-15T00:52:45.781Z,1019.05
2019-05-15T00:53:48.149Z,1019.05
2019-05-15T00:54:45.716Z,1019.06
2019-05-15T00:55:45.684Z,1019.03
2019-05-15T00:56:45.646Z,1018.99
2019-05-15T00:57:45.611Z,1018.95
2019-05-15T00:58:45.571Z,1018.94
2019-05-15T00:59:45.545Z,1018.90
2019-05-15T01:00:45.500Z,1018.87
2019-05-15T01:01:45.470Z,1018.86
2019-05-15T01:02:45.432Z,1018.84
2019-05-15T01:03:45.391Z,1018.86
2019-05-15T01:04:45.357Z,1018.83
2019-05-15T01:05:45.334Z,1018.82
2019-05-15T01:06:45.287Z,1018.82
2019-05-15T01:07:45.261Z,1018.82
2019-05-15T01:08:45.222Z,1018.79
2019-05-15T01:09:45.180Z,1018.75
2019-05-15T01:10:45.142Z,1018.82
2019-05-15T01:11:45.107Z,1018.80
2019-05-15T01:12:45.074Z,1018.82
2019-05-15T01:13:45.041Z,1018.82
2019-05-15T01:14:45.007Z,1018.82
2019-05-15T01:15:44.966Z,1018.83
2019-05-15T01:16:44.933Z,1018.84
2019-05-15T01:17:44.893Z,1018.81
2019-05-15T01:18:44.865Z,1018.82
2019-05-15T01:19:44.828Z,1018.80
2019-05-15T01:20:44.803Z,1018.81
2019-05-15T01:21:44.755Z,1018.83
2019-05-15T01:22:44.723Z,1018.80
2019-05-15T01:23:44.686Z,1018.82
2019-05-15T01:24:44.647Z,1018.80
2019-05-15T01:25:44.616Z,1018.82
2019-05-15T01:26:44.586Z,1018.80
2019-05-15T01:27:44.537Z,1018.79
2019-05-15T01:28:44.512Z,1018.79
2019-05-15T01:29:45.301Z,1018.80
2019-05-15T01:30:44.441Z,1018.80
2019-05-15T01:31:44.403Z,1018.79
2019-05-15T01:32:44.363Z,1018.77
2019-05-15T01:33:44.332Z,1018.78
2019-05-15T01:34:44.298Z,1018.76
2019-05-15T01:35:44.249Z,1018.75
2019-05-15T01:36:44.228Z,1018.74
2019-05-15T01:37:44.193Z,1018.71
2019-05-15T01:38:44.151Z,1018.70
2019-05-15T01:39:44.122Z,1018.74
2019-05-15T01:40:44.079Z,1018.71
2019-05-15T01:41:44.061Z,1018.73
2019-05-15T01:42:44.002Z,1018.70
2019-05-15T01:43:43.969Z,1018.69
2019-05-15T01:44:43.945Z,1018.68
2019-05-15T01:45:43.902Z,1018.70
2019-05-15T01:46:43.869Z,1018.70
2019-05-15T01:47:43.831Z,1018.69
2019-05-15T01:48:43.805Z,1018.67
2019-05-15T01:49:43.762Z,1018.73
2019-05-15T01:50:43.717Z,1018.72
2019-05-15T01:51:43.688Z,1018.70
2019-05-15T01:52:43.652Z,1018.71
2019-05-15T01:53:43.624Z,1018.67
2019-05-15T01:54:43.583Z,1018.68
2019-05-15T01:55:43.539Z,1018.67
2019-05-15T01:56:43.508Z,1018.67
2019-05-15T01:57:43.483Z,1018.66
2019-05-15T01:58:43.443Z,1018.65
2019-05-15T01:59:56.434Z,1018.65
2019-05-15T02:00:43.364Z,1018.64
2019-05-15T02:01:43.333Z,1018.66
2019-05-15T02:02:43.292Z,1018.64
2019-05-15T02:03:43.265Z,1018.60
2019-05-15T02:04:43.222Z,1018.63
2019-05-15T02:05:43.185Z,1018.63
2019-05-15T02:06:43.147Z,1018.61
2019-05-15T02:07:43.116Z,1018.65
2019-05-15T02:08:43.075Z,1018.61
2019-05-15T02:09:43.046Z,1018.64
2019-05-15T02:10:43.007Z,1018.61
2019-05-15T02:11:42.966Z,1018.62
2019-05-15T02:12:42.927Z,1018.62
2019-05-15T02:13:42.896Z,1018.62
2019-05-15T02:14:42.873Z,1018.67
2019-05-15T02:15:42.817Z,1018.64
2019-05-15T02:16:42.794Z,1018.65
2019-05-15T02:17:42.758Z,1018.64
2019-05-15T02:18:42.730Z,1018.63
2019-05-15T02:19:42.676Z,1018.64
2019-05-15T02:20:42.645Z,1018.67
2019-05-15T02:21:42.616Z,1018.65
2019-05-15T02:22:42.759Z,1018.66
2019-05-15T02:23:42.536Z,1018.64
2019-05-15T02:24:42.506Z,1018.63
2019-05-15T02:25:42.461Z,1018.63
2019-05-15T02:26:42.431Z,1018.64
2019-05-15T02:27:42.390Z,1018.61
2019-05-15T02:28:42.355Z,1018.60
2019-05-15T02:29:42.327Z,1018.60
2019-05-15T02:30:42.299Z,1018.59
2019-05-15T02:31:42.263Z,1018.58
2019-05-15T02:32:42.212Z,1018.59
2019-05-15T02:33:42.179Z,1018.57
2019-05-15T02:34:42.142Z,1018.57
2019-05-15T02:35:42.101Z,1018.54
2019-05-15T02:36:42.073Z,1018.53
2019-05-15T02:37:42.033Z,1018.56
2019-05-15T02:38:42.006Z,1018.59
2019-05-15T02:39:41.965Z,1018.57
2019-05-15T02:40:41.932Z,1018.54
2019-05-15T02:41:41.891Z,1018.56
2019-05-15T02:42:41.850Z,1018.52
2019-05-15T02:43:41.817Z,1018.50
2019-05-15T02:44:41.785Z,1018.54
2019-05-15T02:45:42.673Z,1018.50
2019-05-15T02:46:41.709Z,1018.44
2019-05-15T02:47:41.670Z,1018.52
2019-05-15T02:48:41.640Z,1018.50
2019-05-15T02:49:41.599Z,1018.48
2019-05-15T02:50:41.559Z,1018.48
2019-05-15T02:51:41.518Z,1018.48
2019-05-15T02:52:45.200Z,1018.49
2019-05-15T02:53:41.453Z,1018.47
2019-05-15T02:54:41.424Z,1018.48
2019-05-15T02:55:41.378Z,1018.46
2019-05-15T02:56:41.345Z,1018.47
2019-05-15T02:57:41.307Z,1018.48
2019-05-15T02:58:41.275Z,1018.48
2019-05-15T02:59:41.233Z,1018.48
2019-05-15T03:00:48.404Z,1018.46
2019-05-15T03:01:41.164Z,1018.47
2019-05-15T03:02:41.761Z,1018.50
2019-05-15T03:03:41.082Z,1018.50
2019-05-15T03:04:41.050Z,1018.53
2019-05-15T03:05:41.303Z,1018.53
2019-05-15T03:06:40.979Z,1018.53
2019-05-15T03:07:40.942Z,1018.55
2019-05-15T03:08:40.908Z,1018.55
2019-05-15T03:09:40.873Z,1018.57
2019-05-15T03:10:41.161Z,1018.54
2019-05-15T03:11:41.290Z,1018.55
2019-05-15T03:12:41.290Z,1018.58
2019-05-15T03:13:40.728Z,1018.59
2019-05-15T03:14:40.690Z,1018.56
2019-05-15T03:15:40.949Z,1018.54
2019-05-15T03:16:40.616Z,1018.57
2019-05-15T03:17:41.040Z,1018.62
2019-05-15T03:18:40.541Z,1018.62
2019-05-15T03:19:40.499Z,1018.74
2019-05-15T03:20:40.471Z,1018.71
2019-05-15T03:21:40.432Z,1018.67
2019-05-15T03:22:40.787Z,1018.70
2019-05-15T03:23:40.874Z,1018.72
2019-05-15T03:24:40.329Z,1018.68
2019-05-15T03:25:40.922Z,1018.74
2019-05-15T03:26:40.247Z,1018.73
2019-05-15T03:27:40.422Z,1018.71
2019-05-15T03:28:40.175Z,1018.71
2019-05-15T03:29:40.581Z,1018.76
2019-05-15T03:31:13.426Z,1018.78
2019-05-15T03:31:52.801Z,1018.76
2019-05-15T03:32:52.313Z,1018.79
2019-05-15T03:33:46.029Z,1018.76
2019-05-15T03:34:46.834Z,1018.74
2019-05-15T03:35:42.764Z,1018.75
2019-05-15T03:36:45.158Z,1018.79
2019-05-15T03:37:40.159Z,1018.77
2019-05-15T03:38:39.842Z,1018.78
2019-05-15T03:39:39.772Z,1018.74
2019-05-15T03:40:40.122Z,1018.77
2019-05-15T03:41:39.692Z,1018.75
2019-05-15T03:42:40.046Z,1018.77
2019-05-15T03:43:39.677Z,1018.74
2019-05-15T03:44:39.603Z,1018.77
2019-05-15T03:45:40.620Z,1018.75
2019-05-15T03:46:40.009Z,1018.71
2019-05-15T03:47:40.450Z,1018.75
2019-05-15T03:48:40.484Z,1018.79
2019-05-15T03:49:39.896Z,1018.76
2019-05-15T03:50:40.529Z,1018.79
2019-05-15T03:51:44.780Z,1018.78
2019-05-15T03:52:39.959Z,1018.73
2019-05-15T03:53:40.257Z,1018.77
2019-05-15T03:54:39.590Z,1018.75
2019-05-15T03:55:40.554Z,1018.75
2019-05-15T03:56:39.650Z,1018.76
2019-05-15T03:57:40.175Z,1018.77
2019-05-15T03:58:40.069Z,1018.76
2019-05-15T03:59:39.915Z,1018.77
2019-05-15T04:00:39.771Z,1018.79
2019-05-15T04:01:43.704Z,1018.75
2019-05-15T04:02:39.676Z,1018.81
2019-05-15T04:03:39.148Z,1018.80
2019-05-15T04:04:39.227Z,1018.82
2019-05-15T04:05:39.251Z,1018.81
2019-05-15T04:06:39.266Z,1018.84
2019-05-15T04:07:39.752Z,1018.83
2019-05-15T04:08:39.291Z,1018.86
2019-05-15T04:09:38.835Z,1018.85
2019-05-15T04:10:39.971Z,1018.86
2019-05-15T04:11:38.966Z,1018.88
2019-05-15T04:12:40.329Z,1018.91
2019-05-15T04:13:39.799Z,1018.89
2019-05-15T04:14:39.452Z,1018.90
2019-05-15T04:15:39.605Z,1018.95
2019-05-15T04:16:39.293Z,1018.95
2019-05-15T04:17:40.025Z,1018.95
2019-05-15T04:18:39.605Z,1018.97
2019-05-15T04:19:39.190Z,1018.98
2019-05-15T04:20:40.409Z,1018.93
2019-05-15T04:21:44.011Z,1018.93
2019-05-15T04:22:40.055Z,1018.90
2019-05-15T04:23:39.065Z,1018.91
2019-05-15T04:24:39.427Z,1018.93
2019-05-15T04:25:39.151Z,1018.93
2019-05-15T04:26:39.498Z,1018.95
2019-05-15T04:27:39.005Z,1018.93
2019-05-15T04:28:41.216Z,1018.91
2019-05-15T04:29:39.727Z,1018.94
2019-05-15T04:30:39.304Z,1018.94
2019-05-15T04:31:51.995Z,1018.93
2019-05-15T04:32:39.807Z,1018.93
2019-05-15T04:33:39.863Z,1018.95
2019-05-15T04:34:39.688Z,1018.97
2019-05-15T04:35:40.182Z,1018.94
2019-05-15T04:36:39.090Z,1018.91
2019-05-15T04:37:40.494Z,1018.89
2019-05-15T04:38:39.227Z,1018.84
2019-05-15T04:39:39.994Z,1018.88
2019-05-15T04:40:39.665Z,1018.86
2019-05-15T04:41:39.290Z,1018.86
2019-05-15T04:42:39.864Z,1018.85
2019-05-15T04:43:43.742Z,1018.81
2019-05-15T04:44:39.525Z,1018.78
2019-05-15T04:45:39.179Z,1018.82
2019-05-15T04:46:39.198Z,1018.80
2019-05-15T04:47:39.658Z,1018.75
2019-05-15T04:48:39.784Z,1018.76
2019-05-15T04:49:39.424Z,1018.74
2019-05-15T04:50:39.956Z,1018.73
2019-05-15T04:51:39.181Z,1018.72
2019-05-15T04:52:39.430Z,1018.72
2019-05-15T04:53:39.432Z,1018.69
2019-05-15T04:54:40.146Z,1018.73
2019-05-15T04:55:40.464Z,1018.71
2019-05-15T04:56:39.915Z,1018.71
2019-05-15T04:57:39.991Z,1018.70
2019-05-15T04:58:39.533Z,1018.73
2019-05-15T04:59:38.957Z,1018.75
2019-05-15T05:00:39.812Z,1018.74
2019-05-15T05:01:40.029Z,1018.77
2019-05-15T05:02:39.469Z,1018.75
2019-05-15T05:03:39.359Z,1018.76
2019-05-15T05:04:38.818Z,1018.76
2019-05-15T05:05:38.728Z,1018.76
2019-05-15T05:06:38.684Z,1018.77
2019-05-15T05:07:38.941Z,1018.76
2019-05-15T05:08:39.459Z,1018.80
2019-05-15T05:09:38.983Z,1018.78
2019-05-15T05:10:39.359Z,1018.76
2019-05-15T05:11:38.308Z,1018.75
2019-05-15T05:12:40.987Z,1018.80
2019-05-15T05:13:38.955Z,1018.78
2019-05-15T05:14:38.921Z,1018.79
2019-05-15T05:15:38.721Z,1018.78
2019-05-15T05:16:38.998Z,1018.79
2019-05-15T05:17:38.791Z,1018.84
2019-05-15T05:18:40.477Z,1018.81
2019-05-15T05:19:36.091Z,1018.84
2019-05-15T05:20:38.112Z,1018.83
2019-05-15T05:21:38.408Z,1018.82
2019-05-15T05:22:35.972Z,1018.81
2019-05-15T05:23:37.774Z,1018.77
2019-05-15T05:24:35.931Z,1018.78
2019-05-15T05:25:35.866Z,1018.77
2019-05-15T05:26:38.038Z,1018.76
2019-05-15T05:27:38.030Z,1018.74
2019-05-15T05:28:37.789Z,1018.77
2019-05-15T05:29:35.722Z,1018.78
2019-05-15T05:30:35.688Z,1018.75
2019-05-15T05:31:35.655Z,1018.76
2019-05-15T05:32:38.758Z,1018.76
2019-05-15T05:33:37.945Z,1018.75
2019-05-15T05:34:35.546Z,1018.72
2019-05-15T05:35:35.508Z,1018.70
2019-05-15T05:36:35.472Z,1018.72
2019-05-15T05:37:35.431Z,1018.76
2019-05-15T05:38:35.395Z,1018.72
2019-05-15T05:39:35.373Z,1018.73
2019-05-15T05:40:35.330Z,1018.74
2019-05-15T05:41:35.286Z,1018.70
2019-05-15T05:42:35.246Z,1018.69
2019-05-15T05:43:35.207Z,1018.72
2019-05-15T05:44:35.174Z,1018.71
2019-05-15T05:45:35.153Z,1018.70
2019-05-15T05:46:35.101Z,1018.73
2019-05-15T05:47:35.070Z,1018.75
2019-05-15T05:48:35.037Z,1018.73
2019-05-15T05:49:34.989Z,1018.77
2019-05-15T05:50:34.969Z,1018.75
2019-05-15T05:51:34.927Z,1018.79
2019-05-15T05:52:34.889Z,1018.80
2019-05-15T05:53:34.857Z,1018.81
2019-05-15T05:54:34.814Z,1018.83
2019-05-15T05:55:34.781Z,1018.83
2019-05-15T05:56:34.749Z,1018.80
2019-05-15T05:57:34.714Z,1018.79
2019-05-15T05:58:34.669Z,1018.79
2019-05-15T05:59:34.636Z,1018.75
2019-05-15T06:00:34.607Z,1018.76
2019-05-15T06:01:38.313Z,1018.73
2019-05-15T06:02:44.727Z,1018.76
2019-05-15T06:03:34.493Z,1018.71
2019-05-15T06:04:34.458Z,1018.72
2019-05-15T06:05:34.423Z,1018.74
2019-05-15T06:06:34.385Z,1018.76
2019-05-15T06:07:35.502Z,1018.75
2019-05-15T06:08:34.312Z,1018.74
2019-05-15T06:09:34.274Z,1018.75
2019-05-15T06:10:34.247Z,1018.77
2019-05-15T06:11:34.209Z,1018.75
2019-05-15T06:12:34.188Z,1018.75
2019-05-15T06:13:34.133Z,1018.74
2019-05-15T06:14:34.094Z,1018.77
2019-05-15T06:15:34.063Z,1018.72
2019-05-15T06:16:34.028Z,1018.75
2019-05-15T06:17:33.994Z,1018.77
2019-05-15T06:18:33.951Z,1018.78
2019-05-15T06:19:33.920Z,1018.78
2019-05-15T06:20:33.885Z,1018.82
2019-05-15T06:21:33.845Z,1018.79
2019-05-15T06:22:33.809Z,1018.84
2019-05-15T06:23:35.834Z,1018.81
2019-05-15T06:24:33.740Z,1018.79
2019-05-15T06:25:33.696Z,1018.86
2019-05-15T06:26:33.669Z,1018.82
2019-05-15T06:27:33.635Z,1018.77
2019-05-15T06:28:33.594Z,1018.80
2019-05-15T06:29:33.566Z,1018.82
2019-05-15T06:30:33.549Z,1018.78
2019-05-15T06:31:33.499Z,1018.78
2019-05-15T06:32:33.461Z,1018.78
2019-05-15T06:33:33.416Z,1018.80
2019-05-15T06:34:33.384Z,1018.76
2019-05-15T06:35:33.355Z,1018.73
2019-05-15T06:36:33.321Z,1018.73
2019-05-15T06:37:33.275Z,1018.73
2019-05-15T06:38:33.256Z,1018.73
2019-05-15T06:39:33.208Z,1018.71
2019-05-15T06:40:33.175Z,1018.69
2019-05-15T06:41:33.999Z,1018.68
2019-05-15T06:42:33.106Z,1018.65
2019-05-15T06:43:33.066Z,1018.64
2019-05-15T06:44:33.032Z,1018.66
2019-05-15T06:45:33.002Z,1018.67
2019-05-15T06:46:32.967Z,1018.69
2019-05-15T06:47:32.936Z,1018.70
2019-05-15T06:48:32.891Z,1018.67
2019-05-15T06:49:32.865Z,1018.66
2019-05-15T06:50:32.820Z,1018.64
2019-05-15T06:51:32.785Z,1018.68
2019-05-15T06:52:32.751Z,1018.67
2019-05-15T06:53:32.716Z,1018.67
2019-05-15T06:54:32.682Z,1018.66
2019-05-15T06:55:32.658Z,1018.65
2019-05-15T06:56:32.618Z,1018.64
2019-05-15T06:57:32.580Z,1018.62
2019-05-15T06:58:32.547Z,1018.59
2019-05-15T06:59:32.511Z,1018.56
2019-05-15T07:00:32.473Z,1018.59
2019-05-15T07:01:32.441Z,1018.54
2019-05-15T07:02:32.408Z,1018.62
2019-05-15T07:03:32.368Z,1018.60
2019-05-15T07:04:32.333Z,1018.60
2019-05-15T07:05:32.296Z,1018.61
2019-05-15T07:06:32.279Z,1018.61
2019-05-15T07:07:32.233Z,1018.63
2019-05-15T07:08:32.196Z,1018.58
2019-05-15T07:09:32.164Z,1018.55
2019-05-15T07:10:32.151Z,1018.59
2019-05-15T07:11:32.088Z,1018.60
2019-05-15T07:12:32.062Z,1018.62
2019-05-15T07:13:32.026Z,1018.61
2019-05-15T07:14:31.989Z,1018.59
2019-05-15T07:15:31.958Z,1018.58
2019-05-15T07:16:31.929Z,1018.57
2019-05-15T07:17:31.884Z,1018.55
2019-05-15T07:18:31.863Z,1018.59
2019-05-15T07:19:31.820Z,1018.61
2019-05-15T07:20:31.778Z,1018.61
2019-05-15T07:21:31.744Z,1018.60
2019-05-15T07:22:31.714Z,1018.59
2019-05-15T07:23:31.679Z,1018.56
2019-05-15T07:24:31.691Z,1018.57
2019-05-15T07:25:31.613Z,1018.59
2019-05-15T07:26:31.577Z,1018.58
2019-05-15T07:27:31.539Z,1018.59
2019-05-15T07:28:31.513Z,1018.55
2019-05-15T07:29:31.472Z,1018.55
2019-05-15T07:30:31.459Z,1018.55
2019-05-15T07:31:31.404Z,1018.57
2019-05-15T07:32:31.373Z,1018.55
2019-05-15T07:33:39.541Z,1018.59
2019-05-15T07:34:31.336Z,1018.55
2019-05-15T07:35:31.274Z,1018.59
2019-05-15T07:36:31.241Z,1018.54
2019-05-15T07:37:31.210Z,1018.53
2019-05-15T07:38:31.160Z,1018.48
2019-05-15T07:39:31.134Z,1018.50
2019-05-15T07:40:31.101Z,1018.45
2019-05-15T07:41:31.063Z,1018.48
2019-05-15T07:42:31.036Z,1018.47
2019-05-15T07:43:31.004Z,1018.47
2019-05-15T07:44:30.974Z,1018.49
2019-05-15T07:45:30.936Z,1018.47
2019-05-15T07:46:30.898Z,1018.49
2019-05-15T07:47:30.866Z,1018.55
2019-05-15T07:48:30.826Z,1018.48
2019-05-15T07:49:30.791Z,1018.48
2019-05-15T07:50:30.765Z,1018.49
2019-05-15T07:51:30.730Z,1018.45
2019-05-15T07:52:30.690Z,1018.50
2019-05-15T07:53:30.666Z,1018.53
2019-05-15T07:54:30.635Z,1018.52
2019-05-15T07:55:30.607Z,1018.46
2019-05-15T07:56:30.560Z,1018.47
2019-05-15T07:57:30.530Z,1018.49
2019-05-15T07:58:30.501Z,1018.40
2019-05-15T07:59:30.464Z,1018.43
2019-05-15T08:00:30.431Z,1018.41
2019-05-15T08:01:30.421Z,1018.39
2019-05-15T08:02:30.370Z,1018.43
2019-05-15T08:03:30.329Z,1018.41
2019-05-15T08:04:32.919Z,1018.36
2019-05-15T08:05:30.262Z,1018.38
2019-05-15T08:06:30.235Z,1018.36
2019-05-15T08:07:30.199Z,1018.33
2019-05-15T08:08:30.167Z,1018.34
2019-05-15T08:09:30.128Z,1018.40
2019-05-15T08:10:30.093Z,1018.39
2019-05-15T08:11:30.071Z,1018.43
2019-05-15T08:12:30.029Z,1018.43
2019-05-15T08:13:29.990Z,1018.40
2019-05-15T08:14:29.967Z,1018.39
2019-05-15T08:15:29.922Z,1018.40
2019-05-15T08:16:29.895Z,1018.38
2019-05-15T08:17:29.885Z,1018.37
2019-05-15T08:18:29.825Z,1018.34
2019-05-15T08:19:29.791Z,1018.32
2019-05-15T08:20:29.776Z,1018.33
2019-05-15T08:21:29.726Z,1018.31
2019-05-15T08:22:29.693Z,1018.33
2019-05-15T08:23:29.663Z,1018.32
2019-05-15T08:24:29.996Z,1018.26
2019-05-15T08:25:35.033Z,1018.29
2019-05-15T08:26:29.568Z,1018.25
2019-05-15T08:27:30.056Z,1018.28
2019-05-15T08:28:29.496Z,1018.33
2019-05-15T08:29:29.461Z,1018.33
2019-05-15T08:30:29.425Z,1018.31
2019-05-15T08:31:29.398Z,1018.30
2019-05-15T08:32:29.386Z,1018.25
2019-05-15T08:33:29.326Z,1018.25
2019-05-15T08:34:29.290Z,1018.18
2019-05-15T08:35:29.346Z,1018.19
2019-05-15T08:36:31.263Z,1018.22
2019-05-15T08:37:29.345Z,1018.18
2019-05-15T08:38:29.169Z,1018.15
2019-05-15T08:39:29.132Z,1018.13
2019-05-15T08:40:29.093Z,1018.09
2019-05-15T08:41:29.610Z,1018.09
2019-05-15T08:42:31.947Z,1018.12
2019-05-15T08:43:31.221Z,1018.08
2019-05-15T08:44:29.501Z,1018.04
2019-05-15T08:45:28.937Z,1018.08
2019-05-15T08:46:28.897Z,1018.07
2019-05-15T08:47:29.688Z,1018.03
2019-05-15T08:48:28.837Z,1018.07
2019-05-15T08:49:28.808Z,1018.05
2019-05-15T08:50:28.860Z,1018.04
2019-05-15T08:51:28.729Z,1018.05
2019-05-15T08:52:28.699Z,1017.97
2019-05-15T08:53:28.895Z,1017.98
2019-05-15T08:54:29.183Z,1018.00
2019-05-15T08:55:28.608Z,1018.01
2019-05-15T08:56:29.054Z,1017.95
2019-05-15T08:57:29.035Z,1017.96
2019-05-15T08:58:29.078Z,1017.95
2019-05-15T08:59:29.429Z,1017.92
2019-05-15T09:00:29.452Z,1017.89
2019-05-15T09:01:28.878Z,1017.87
2019-05-15T09:02:28.900Z,1017.86
2019-05-15T09:03:28.740Z,1017.87
2019-05-15T09:04:34.418Z,1017.82
2019-05-15T09:05:28.369Z,1017.84
2019-05-15T09:06:29.206Z,1017.85
2019-05-15T09:07:28.743Z,1017.78
2019-05-15T09:08:29.370Z,1017.81
2019-05-15T09:09:28.774Z,1017.75
2019-05-15T09:10:28.766Z,1017.76
2019-05-15T09:11:28.434Z,1017.80
2019-05-15T09:12:29.459Z,1017.77
2019-05-15T09:13:29.241Z,1017.78
2019-05-15T09:14:28.622Z,1017.77
2019-05-15T09:15:29.344Z,1017.77
2019-05-15T09:16:28.107Z,1017.74
2019-05-15T09:17:28.561Z,1017.73
2019-05-15T09:18:28.364Z,1017.73
2019-05-15T09:19:28.151Z,1017.74
2019-05-15T09:20:28.732Z,1017.70
2019-05-15T09:21:28.357Z,1017.70
2019-05-15T09:22:29.193Z,1017.66
2019-05-15T09:23:28.887Z,1017.62
2019-05-15T09:24:28.646Z,1017.57
2019-05-15T09:25:28.771Z,1017.61
2019-05-15T09:26:28.402Z,1017.59
2019-05-15T09:27:27.929Z,1017.61
2019-05-15T09:28:29.599Z,1017.54
2019-05-15T09:29:28.533Z,1017.51
2019-05-15T09:30:28.615Z,1017.53
2019-05-15T09:31:28.445Z,1017.54
2019-05-15T09:32:28.524Z,1017.52
2019-05-15T09:33:28.586Z,1017.50
2019-05-15T09:34:44.929Z,1017.49
2019-05-15T09:35:27.797Z,1017.45
2019-05-15T09:36:28.839Z,1017.46
2019-05-15T09:37:28.692Z,1017.45
2019-05-15T09:38:28.990Z,1017.40
2019-05-15T09:39:28.657Z,1017.43
2019-05-15T09:40:41.852Z,1017.40
2019-05-15T09:41:28.610Z,1017.36
2019-05-15T09:42:28.619Z,1017.37
2019-05-15T09:43:28.525Z,1017.37
2019-05-15T09:44:28.360Z,1017.40
2019-05-15T09:45:28.609Z,1017.36
2019-05-15T09:46:28.975Z,1017.42
2019-05-15T09:47:29.492Z,1017.43
2019-05-15T09:48:28.636Z,1017.37
2019-05-15T09:49:28.589Z,1017.40
2019-05-15T09:50:28.203Z,1017.40
2019-05-15T09:51:29.023Z,1017.41
2019-05-15T09:52:29.333Z,1017.41
2019-05-15T09:53:28.502Z,1017.40
2019-05-15T09:54:29.108Z,1017.41
2019-05-15T09:55:28.543Z,1017.40
2019-05-15T09:56:29.080Z,1017.40
2019-05-15T09:57:29.981Z,1017.39
2019-05-15T09:58:26.579Z,1017.42
2019-05-15T09:59:28.133Z,1017.37
2019-05-15T10:00:29.083Z,1017.34
2019-05-15T10:01:28.467Z,1017.37
2019-05-15T10:02:28.380Z,1017.33
2019-05-15T10:03:28.275Z,1017.34
2019-05-15T10:04:28.675Z,1017.36
2019-05-15T10:05:28.130Z,1017.36
2019-05-15T10:06:28.514Z,1017.35
2019-05-15T10:07:28.531Z,1017.36
2019-05-15T10:08:29.056Z,1017.37
2019-05-15T10:09:28.480Z,1017.39
2019-05-15T10:10:28.315Z,1017.31
2019-05-15T10:11:28.712Z,1017.31
2019-05-15T10:12:31.353Z,1017.35
2019-05-15T10:13:26.107Z,1017.29
2019-05-15T10:14:26.078Z,1017.32
2019-05-15T10:15:26.052Z,1017.32
2019-05-15T10:16:26.014Z,1017.29
2019-05-15T10:17:25.990Z,1017.30
2019-05-15T10:18:28.250Z,1017.27
2019-05-15T10:19:25.925Z,1017.27
2019-05-15T10:20:25.902Z,1017.28
2019-05-15T10:21:31.492Z,1017.25
2019-05-15T10:22:28.153Z,1017.26
2019-05-15T10:23:25.818Z,1017.24
2019-05-15T10:24:27.987Z,1017.26
2019-05-15T10:25:28.026Z,1017.23
2019-05-15T10:26:28.390Z,1017.27
2019-05-15T10:27:25.702Z,1017.22
2019-05-15T10:28:25.678Z,1017.22
2019-05-15T10:29:28.017Z,1017.16
2019-05-15T10:30:28.243Z,1017.19
2019-05-15T10:31:28.234Z,1017.19
2019-05-15T10:32:25.559Z,1017.14
2019-05-15T10:33:25.549Z,1017.14
2019-05-15T10:34:25.501Z,1017.19
2019-05-15T10:35:31.073Z,1017.21
2019-05-15T10:36:27.835Z,1017.15
2019-05-15T10:37:28.263Z,1017.11
2019-05-15T10:38:25.391Z,1017.12
2019-05-15T10:39:25.375Z,1017.10
2019-05-15T10:40:25.344Z,1017.07
2019-05-15T10:41:25.320Z,1017.12
2019-05-15T10:42:25.294Z,1017.15
2019-05-15T10:43:25.256Z,1017.10
2019-05-15T10:44:25.235Z,1017.11
2019-05-15T10:45:25.204Z,1017.11
2019-05-15T10:46:25.184Z,1017.07
2019-05-15T10:47:25.156Z,1017.02
2019-05-15T10:48:25.122Z,1017.09
2019-05-15T10:49:25.096Z,1017.03
2019-05-15T10:50:25.066Z,1017.02
2019-05-15T10:51:25.045Z,1016.98
2019-05-15T10:52:25.022Z,1016.94
2019-05-15T10:53:24.991Z,1016.92
2019-05-15T10:54:24.965Z,1016.91
2019-05-15T10:55:24.948Z,1016.94
2019-05-15T10:56:24.907Z,1016.83
2019-05-15T10:57:24.880Z,1016.84
2019-05-15T10:58:24.857Z,1016.84
2019-05-15T10:59:24.832Z,1016.84
2019-05-15T11:00:24.805Z,1016.86
2019-05-15T11:01:24.775Z,1016.82
2019-05-15T11:02:24.764Z,1016.85
2019-05-15T11:03:24.732Z,1016.85
2019-05-15T11:04:24.699Z,1016.84
2019-05-15T11:05:40.281Z,1016.78
2019-05-15T11:06:24.659Z,1016.84
2019-05-15T11:07:24.616Z,1016.80
2019-05-15T11:08:24.596Z,1016.80
2019-05-15T11:09:24.561Z,1016.77
2019-05-15T11:10:24.536Z,1016.72
2019-05-15T11:11:24.508Z,1016.69
2019-05-15T11:12:24.483Z,1016.65
2019-05-15T11:13:24.462Z,1016.76
2019-05-15T11:14:24.434Z,1016.70
2019-05-15T11:15:24.399Z,1016.68
2019-05-15T11:16:24.376Z,1016.67
2019-05-15T11:17:24.350Z,1016.68
2019-05-15T11:18:24.332Z,1016.69
2019-05-15T11:19:24.293Z,1016.65
2019-05-15T11:20:24.271Z,1016.62
2019-05-15T11:21:24.237Z,1016.63
2019-05-15T11:22:24.215Z,1016.63
2019-05-15T11:23:24.191Z,1016.61
2019-05-15T11:24:24.164Z,1016.58
2019-05-15T11:25:24.127Z,1016.57
2019-05-15T11:26:24.097Z,1016.54
2019-05-15T11:27:24.074Z,1016.49
2019-05-15T11:28:24.162Z,1016.50
2019-05-15T11:29:24.033Z,1016.47
2019-05-15T11:30:23.997Z,1016.53
2019-05-15T11:31:24.950Z,1016.42
2019-05-15T11:32:23.946Z,1016.45
2019-05-15T11:33:23.924Z,1016.51
2019-05-15T11:34:23.900Z,1016.49
2019-05-15T11:35:23.863Z,1016.42
2019-05-15T11:36:23.837Z,1016.40
2019-05-15T11:37:23.816Z,1016.42
2019-05-15T11:38:23.792Z,1016.39
2019-05-15T11:39:23.759Z,1016.35
2019-05-15T11:40:23.723Z,1016.35
2019-05-15T11:41:23.703Z,1016.33
2019-05-15T11:42:23.675Z,1016.29
2019-05-15T11:43:23.660Z,1016.31
2019-05-15T11:44:23.623Z,1016.29
2019-05-15T11:45:23.604Z,1016.22
2019-05-15T11:46:25.893Z,1016.11
2019-05-15T11:47:23.540Z,1016.23
2019-05-15T11:48:23.514Z,1016.24
2019-05-15T11:49:23.484Z,1016.27
2019-05-15T11:50:23.471Z,1016.25
2019-05-15T11:51:23.448Z,1016.25
2019-05-15T11:52:23.419Z,1016.23
2019-05-15T11:53:23.380Z,1016.21
2019-05-15T11:54:23.357Z,1016.21
2019-05-15T11:55:23.341Z,1016.24
2019-05-15T11:56:23.312Z,1016.19
2019-05-15T11:57:37.168Z,1016.18
2019-05-15T11:58:23.253Z,1016.19
2019-05-15T11:59:23.229Z,1016.17
2019-05-15T12:00:27.152Z,1016.22
2019-05-15T12:01:23.197Z,1016.19
2019-05-15T12:02:23.154Z,1016.14
2019-05-15T12:03:24.928Z,1016.19
2019-05-15T12:04:30.450Z,1016.20
2019-05-15T12:05:23.073Z,1016.20